Time;durP1;ratioP1;P1;durP2;ratioP2;P2;SDS_P1;SDS_P2;PMS_P1;PMS_P2;Temp;Humidity;BMP_temperature;BMP_pressure;BME280_temperature;BME280_humidity;BME280_pressure;Samples;Min_cycle;Max_cycle;Signal;HPM_P1;HPM_P2
2022/01/26 00:07:31;;;;;;;81.88;31.17;;;0.90;97.60;;;;;;5090559;28;20540;-70
2022/01/26 00:09:57;;;;;;;81.93;30.07;;;1.00;97.70;;;;;;5095034;28;20171;-70
2022/01/26 00:12:23;;;;;;;77.77;31.93;;;1.00;97.70;;;;;;5094789;28;20657;-70
2022/01/26 00:14:48;;;;;;;89.73;30.97;;;1.00;97.60;;;;;;5093721;28;20182;-69
2022/01/26 00:17:15;;;;;;;80.73;31.73;;;1.00;97.50;;;;;;5092766;28;20199;-69
2022/01/26 00:19:55;;;;;;;95.65;35.25;;;1.00;97.40;;;;;;5092722;28;20667;-71
2022/01/26 00:38:40;;;;;;;82.38;31.20;;;1.10;97.70;;;;;;5090163;28;20357;-69
2022/01/26 00:41:11;;;;;;;85.35;34.92;;;1.00;97.60;;;;;;5107197;28;20211;-69
2022/01/26 00:43:41;;;;;;;79.10;31.83;;;1.00;97.70;;;;;;5102031;28;20194;-69
2022/01/26 00:46:07;;;;;;;94.18;34.75;;;1.00;97.60;;;;;;5091340;28;20214;-70
2022/01/26 00:48:36;;;;;;;84.25;32.55;;;1.10;97.70;;;;;;5091818;28;20195;-68
2022/01/26 00:51:05;;;;;;;102.50;37.13;;;1.10;97.60;;;;;;5090702;28;20179;-69
2022/01/26 00:53:35;;;;;;;87.18;31.85;;;1.00;97.50;;;;;;5092612;28;20171;-71
2022/01/26 00:56:03;;;;;;;96.85;33.75;;;1.00;97.60;;;;;;5092621;28;20261;-69
2022/01/26 00:58:29;;;;;;;95.07;32.08;;;1.10;97.60;;;;;;5093736;28;20191;-70
2022/01/26 01:00:58;;;;;;;98.60;34.83;;;1.00;97.60;;;;;;5093168;28;20202;-70
2022/01/26 01:03:24;;;;;;;84.50;32.05;;;1.10;97.60;;;;;;5091571;28;20203;-69
2022/01/26 01:08:34;;;;;;;99.38;33.28;;;1.20;97.70;;;;;;5091474;28;20222;-70
2022/01/26 01:11:00;;;;;;;103.27;37.67;;;1.30;97.50;;;;;;5091554;28;20183;-69
2022/01/26 01:13:37;;;;;;;115.72;38.70;;;1.30;97.40;;;;;;5089886;28;20421;-69
2022/01/26 01:16:08;;;;;;;109.78;37.08;;;1.20;97.30;;;;;;5084270;28;20270;-69
2022/01/26 01:34:14;;;;;;;91.43;30.42;;;0.70;97.60;;;;;;5090951;28;20182;-70
2022/01/26 01:36:42;;;;;;;98.90;35.13;;;0.60;97.70;;;;;;5089975;28;20183;-70
2022/01/26 01:39:09;;;;;;;115.97;35.72;;;0.60;97.80;;;;;;5091340;28;20186;-69
2022/01/26 01:41:39;;;;;;;108.93;35.00;;;0.50;97.80;;;;;;5091238;28;20256;-70
2022/01/26 01:44:06;;;;;;;88.75;32.63;;;0.50;98.00;;;;;;5089386;28;20705;-69
2022/01/26 01:46:33;;;;;;;98.47;32.25;;;0.60;98.10;;;;;;5090587;28;20198;-70
2022/01/26 01:49:00;;;;;;;80.40;30.73;;;0.60;98.20;;;;;;5090976;28;20255;-70
2022/01/26 01:51:31;;;;;;;89.75;29.50;;;0.60;98.20;;;;;;5089814;28;20191;-69
2022/01/26 01:53:57;;;;;;;94.82;34.28;;;0.50;98.10;;;;;;5086756;28;20195;-70
2022/01/26 01:56:25;;;;;;;88.70;31.60;;;0.40;98.10;;;;;;5091140;28;20551;-69
2022/01/26 01:58:52;;;;;;;90.18;31.67;;;0.40;98.20;;;;;;5090930;28;20447;-68
2022/01/26 02:01:18;;;;;;;102.55;35.63;;;0.30;98.20;;;;;;5090750;28;20208;-70
2022/01/26 02:03:44;;;;;;;88.93;29.87;;;0.40;98.40;;;;;;5090538;28;20268;-70
2022/01/26 02:06:10;;;;;;;87.13;33.43;;;0.40;98.50;;;;;;5089248;28;20424;-70
2022/01/26 02:08:36;;;;;;;81.67;30.10;;;0.40;98.50;;;;;;5090604;28;20199;-70
2022/01/26 02:11:03;;;;;;;103.33;29.60;;;0.40;98.40;;;;;;5092088;28;20179;-69
2022/01/26 02:13:36;;;;;;;83.20;29.30;;;0.50;98.40;;;;;;5090610;28;20603;-69
2022/01/26 02:16:28;;;;;;;89.32;31.77;;;0.50;98.40;;;;;;5090510;28;20182;-69
2022/01/26 02:19:51;;;;;;;72.97;27.25;;;0.40;98.20;;;;;;5090176;28;20665;-69
2022/01/26 02:54:43;;;;;;;65.37;26.20;;;0.00;98.60;;;;;;5096040;28;20178;-70
2022/01/26 03:02:08;;;;;;;66.55;24.52;;;-0.20;98.50;;;;;;5090750;28;20207;-70
2022/01/26 03:04:47;;;;;;;66.00;24.20;;;-0.30;98.60;;;;;;5090499;28;20163;-70
2022/01/26 03:07:58;;;;;;;76.55;27.15;;;-0.20;98.70;;;;;;5091076;28;20676;-70
2022/01/26 03:10:13;;;;;;;66.38;23.25;;;-0.10;98.80;;;;;;5083173;28;20750;-71
2022/01/26 03:15:20;;;;;;;89.90;26.63;;;-0.10;98.60;;;;;;5090066;28;20210;-69
2022/01/26 03:20:16;;;;;;;75.97;26.95;;;-0.20;98.60;;;;;;5090848;28;20253;-70
2022/01/26 03:28:26;;;;;;;70.80;24.92;;;-0.10;98.80;;;;;;5090749;28;20221;-70
2022/01/26 03:36:10;;;;;;;52.85;21.52;;;-0.30;98.30;;;;;;5090880;28;20290;-71
2022/01/26 03:39:19;;;;;;;50.53;19.45;;;-0.20;98.20;;;;;;5091147;28;20204;-68
2022/01/26 03:43:57;;;;;;;52.47;21.98;;;-0.20;97.70;;;;;;5091079;28;20206;-69
2022/01/26 03:46:23;;;;;;;52.65;18.88;;;-0.20;97.40;;;;;;5086329;28;20229;-71
2022/01/26 03:48:49;;;;;;;57.10;20.90;;;-0.20;97.30;;;;;;5090470;28;20282;-70
2022/01/26 03:51:15;;;;;;;57.40;20.40;;;-0.10;97.30;;;;;;5092426;28;20214;-68
2022/01/26 03:53:41;;;;;;;56.30;21.67;;;-0.10;97.20;;;;;;5094254;28;20229;-70
2022/01/26 03:56:07;;;;;;;58.22;21.85;;;-0.10;97.00;;;;;;5094480;28;20191;-69
2022/01/26 03:58:32;;;;;;;53.40;21.17;;;-0.10;97.00;;;;;;5094717;28;20261;-71
2022/01/26 04:00:58;;;;;;;50.33;20.10;;;-0.10;96.90;;;;;;5095784;28;20192;-69
2022/01/26 04:03:24;;;;;;;51.83;20.97;;;-0.10;96.80;;;;;;5094681;28;20263;-71
2022/01/26 04:05:50;;;;;;;62.30;21.60;;;-0.10;96.90;;;;;;5093880;28;20182;-70
2022/01/26 04:08:22;;;;;;;57.27;22.67;;;0.00;97.00;;;;;;5093779;28;21026;-70
2022/01/26 04:13:32;;;;;;;63.70;21.85;;;-0.20;96.90;;;;;;5093457;28;20194;-70
2022/01/26 04:15:58;;;;;;;45.27;18.60;;;-0.20;97.00;;;;;;5094066;28;20183;-70
2022/01/26 04:18:30;;;;;;;70.07;24.73;;;-0.10;97.10;;;;;;5098879;28;20719;-70
2022/01/26 04:21:01;;;;;;;61.80;22.77;;;-0.20;97.10;;;;;;5092882;28;20207;-70
2022/01/26 04:25:56;;;;;;;61.53;20.52;;;-0.10;97.40;;;;;;5094753;28;20312;-70
2022/01/26 04:28:35;;;;;;;65.07;23.10;;;0.00;97.50;;;;;;5093083;28;20681;-70
2022/01/26 04:31:01;;;;;;;68.30;22.13;;;0.00;97.50;;;;;;5092794;28;20646;-70
2022/01/26 04:33:27;;;;;;;65.80;19.60;;;-0.10;97.40;;;;;;5092773;28;20191;-70
2022/01/26 04:35:53;;;;;;;83.17;25.40;;;-0.10;97.40;;;;;;5094075;28;20179;-71
2022/01/26 04:38:28;;;;;;;84.67;25.30;;;0.00;97.50;;;;;;5093854;28;20227;-71
2022/01/26 04:43:25;;;;;;;62.13;22.67;;;0.00;97.60;;;;;;5092885;28;20179;-69
2022/01/26 04:45:50;;;;;;;61.63;21.92;;;0.10;97.70;;;;;;5092679;28;20207;-70
2022/01/26 04:48:18;;;;;;;73.57;22.93;;;0.00;97.60;;;;;;5091669;28;20191;-72
2022/01/26 04:50:44;;;;;;;67.57;23.73;;;0.00;97.70;;;;;;5093055;28;20324;-69
2022/01/26 04:53:10;;;;;;;67.10;22.67;;;0.10;97.80;;;;;;5092357;28;20267;-69
2022/01/26 04:55:36;;;;;;;57.93;22.03;;;0.20;97.80;;;;;;5091566;28;20421;-70
2022/01/26 04:58:02;;;;;;;67.73;23.33;;;0.20;97.70;;;;;;5093036;28;20545;-70
2022/01/26 05:00:27;;;;;;;76.32;24.55;;;0.20;97.60;;;;;;5099541;28;20210;-68
2022/01/26 05:02:53;;;;;;;71.83;24.07;;;0.10;97.50;;;;;;5099473;28;20168;-70
2022/01/26 05:05:19;;;;;;;66.23;22.37;;;0.10;97.50;;;;;;5094116;28;20685;-68
2022/01/26 05:07:45;;;;;;;80.10;24.93;;;0.10;97.50;;;;;;5095388;28;20768;-68
2022/01/26 05:10:10;;;;;;;62.27;22.30;;;0.10;97.50;;;;;;5092547;28;20528;-70
2022/01/26 05:12:37;;;;;;;76.13;26.73;;;0.10;97.50;;;;;;5091466;28;20984;-69
2022/01/26 05:15:04;;;;;;;65.40;22.27;;;0.00;97.50;;;;;;5091482;28;20171;-70
2022/01/26 05:17:29;;;;;;;66.90;24.55;;;0.00;97.50;;;;;;5092231;28;20194;-70
2022/01/26 05:19:58;;;;;;;62.73;22.83;;;0.00;97.60;;;;;;5091565;28;20183;-70
2022/01/26 05:22:24;;;;;;;81.28;25.88;;;0.10;97.80;;;;;;5091081;28;20989;-69
2022/01/26 05:24:50;;;;;;;63.23;24.67;;;0.10;97.80;;;;;;5090540;28;20183;-69
2022/01/26 05:27:15;;;;;;;63.27;23.90;;;0.10;97.70;;;;;;5091604;28;20529;-68
2022/01/26 05:29:41;;;;;;;61.80;23.50;;;0.10;97.70;;;;;;5090612;28;20471;-69
2022/01/26 05:32:07;;;;;;;66.17;23.70;;;0.20;97.80;;;;;;5090629;28;20183;-70
2022/01/26 05:34:33;;;;;;;61.43;22.10;;;0.20;97.80;;;;;;5090852;28;20555;-70
2022/01/26 05:36:58;;;;;;;66.27;23.33;;;0.20;97.80;;;;;;5092017;28;20445;-69
2022/01/26 05:39:24;;;;;;;66.00;22.90;;;0.20;97.80;;;;;;5092262;28;20588;-69
2022/01/26 05:41:50;;;;;;;62.50;22.20;;;0.20;97.80;;;;;;5091761;28;20203;-70
2022/01/26 05:44:16;;;;;;;66.80;23.00;;;0.10;97.70;;;;;;5091928;28;20821;-71
2022/01/26 05:46:48;;;;;;;79.93;26.03;;;0.10;97.80;;;;;;5091600;28;20688;-70
2022/01/26 05:49:16;;;;;;;67.13;22.85;;;0.10;97.80;;;;;;5090897;28;20805;-71
2022/01/26 05:51:45;;;;;;;75.07;24.85;;;0.10;97.80;;;;;;5090926;28;20271;-69
2022/01/26 05:54:11;;;;;;;63.47;22.98;;;0.10;97.90;;;;;;5091614;28;20175;-72
2022/01/26 05:56:37;;;;;;;69.43;23.60;;;0.10;97.80;;;;;;5089350;28;20329;-69
2022/01/26 05:59:03;;;;;;;81.80;26.08;;;0.00;97.80;;;;;;5091119;28;20270;-70
2022/01/26 06:01:29;;;;;;;79.53;27.57;;;-0.10;97.80;;;;;;5089531;28;20295;-69
2022/01/26 06:03:55;;;;;;;67.43;25.77;;;-0.20;97.90;;;;;;5090065;28;20622;-69
2022/01/26 06:06:21;;;;;;;70.80;24.63;;;-0.10;98.00;;;;;;5089726;28;20409;-69
2022/01/26 06:08:47;;;;;;;65.53;24.58;;;-0.10;98.00;;;;;;5090956;28;20215;-70
2022/01/26 06:11:13;;;;;;;73.13;26.25;;;-0.10;98.00;;;;;;5090848;28;20183;-69
2022/01/26 06:13:38;;;;;;;79.10;25.07;;;-0.20;98.10;;;;;;5089975;28;20190;-70
2022/01/26 06:16:05;;;;;;;67.70;23.73;;;-0.10;98.10;;;;;;5090525;28;20657;-68
2022/01/26 06:18:30;;;;;;;67.72;22.63;;;0.00;98.20;;;;;;5090657;28;20199;-69
2022/01/26 06:20:56;;;;;;;68.33;24.47;;;0.00;98.20;;;;;;5090547;28;20248;-69
2022/01/26 06:23:26;;;;;;;77.50;26.30;;;0.00;98.20;;;;;;5090271;28;20187;-70
2022/01/26 06:25:57;;;;;;;70.18;24.20;;;0.00;98.10;;;;;;5091595;28;20232;-69
2022/01/26 06:28:27;;;;;;;69.97;23.85;;;0.00;98.00;;;;;;5096207;28;20198;-71
2022/01/26 06:31:03;;;;;;;75.90;26.08;;;-0.10;97.80;;;;;;5084117;28;20250;-71
2022/01/26 06:33:33;;;;;;;67.72;26.30;;;-0.10;97.70;;;;;;5086916;28;20182;-70
2022/01/26 06:36:00;;;;;;;69.72;22.88;;;-0.10;97.70;;;;;;5090828;28;20179;-70
2022/01/26 06:38:28;;;;;;;59.88;22.35;;;0.00;97.70;;;;;;5091190;28;20199;-70
2022/01/26 06:40:58;;;;;;;69.95;25.65;;;0.00;97.60;;;;;;5085470;28;20191;-71
2022/01/26 06:43:28;;;;;;;64.00;22.98;;;-0.10;97.50;;;;;;5090856;28;20171;-70
2022/01/26 06:46:05;;;;;;;61.40;25.17;;;-0.10;97.40;;;;;;5092102;28;20570;-70
2022/01/26 06:51:00;;;;;;;67.85;24.60;;;-0.20;97.40;;;;;;5090440;28;20182;-70
2022/01/26 06:53:27;;;;;;;68.93;23.38;;;-0.20;97.40;;;;;;5089788;28;20179;-69
2022/01/26 06:55:53;;;;;;;64.65;24.00;;;-0.20;97.40;;;;;;5090572;28;20189;-70
2022/01/26 06:58:18;;;;;;;55.93;22.03;;;-0.20;97.40;;;;;;5090859;28;20285;-71
2022/01/26 07:00:44;;;;;;;68.57;24.57;;;-0.20;97.50;;;;;;5090560;28;20289;-71
2022/01/26 07:03:10;;;;;;;63.70;22.73;;;-0.10;97.50;;;;;;5090220;28;20471;-70
2022/01/26 07:05:36;;;;;;;54.13;21.90;;;-0.10;97.50;;;;;;5091205;28;21219;-71
2022/01/26 07:08:02;;;;;;;58.43;21.37;;;0.00;97.30;;;;;;5091285;28;20437;-70
2022/01/26 07:10:29;;;;;;;63.83;23.42;;;0.00;97.20;;;;;;5090123;28;20429;-71
2022/01/26 07:12:54;;;;;;;50.75;20.25;;;0.00;97.00;;;;;;5089882;28;20183;-69
2022/01/26 07:21:22;;;;;;;59.47;21.67;;;-0.10;96.60;;;;;;5090391;28;20245;-69
2022/01/26 07:23:42;;;;;;;60.83;20.95;;;-0.10;96.40;;;;;;5088130;28;20183;-70
2022/01/26 07:26:08;;;;;;;63.87;22.50;;;-0.20;96.30;;;;;;5092213;28;20176;-69
2022/01/26 07:28:37;;;;;;;52.80;21.90;;;-0.20;96.20;;;;;;5094886;28;20666;-71
2022/01/26 07:31:04;;;;;;;65.18;24.98;;;-0.20;96.20;;;;;;5093413;28;20941;-69
2022/01/26 07:33:30;;;;;;;56.20;21.48;;;-0.20;96.20;;;;;;5092603;28;20256;-69
2022/01/26 07:35:56;;;;;;;55.55;19.80;;;-0.10;96.20;;;;;;5093034;28;20192;-68
2022/01/26 07:38:22;;;;;;;59.67;23.03;;;0.00;96.20;;;;;;5093009;28;20206;-69
2022/01/26 07:40:47;;;;;;;50.17;21.83;;;0.00;96.20;;;;;;5093094;28;22409;-70
2022/01/26 07:43:13;;;;;;;56.67;20.77;;;0.10;96.10;;;;;;5092916;28;20409;-70
2022/01/26 07:45:39;;;;;;;54.13;20.83;;;0.20;95.90;;;;;;5092929;28;20195;-72
2022/01/26 07:48:05;;;;;;;53.80;21.43;;;0.30;95.60;;;;;;5093422;28;20195;-71
2022/01/26 07:50:31;;;;;;;52.70;22.00;;;0.20;95.30;;;;;;5091872;28;20706;-71
2022/01/26 07:52:59;;;;;;;54.65;19.65;;;0.10;95.00;;;;;;5092688;28;20821;-71
2022/01/26 07:55:25;;;;;;;48.72;19.50;;;0.10;95.00;;;;;;5093212;28;20710;-69
2022/01/26 07:57:52;;;;;;;53.00;19.30;;;0.10;94.90;;;;;;5093365;28;20195;-70
2022/01/26 08:00:19;;;;;;;57.88;21.60;;;0.30;95.00;;;;;;5093561;28;20179;-70
2022/01/26 08:02:45;;;;;;;58.00;21.10;;;0.30;94.80;;;;;;5091888;28;20699;-70
2022/01/26 08:05:12;;;;;;;57.28;21.98;;;0.30;94.70;;;;;;5092724;28;20184;-71
2022/01/26 08:07:38;;;;;;;55.40;19.85;;;0.30;94.70;;;;;;5099438;28;20288;-71
2022/01/26 08:10:06;;;;;;;58.13;21.37;;;0.30;94.70;;;;;;5094645;28;20179;-70
2022/01/26 08:12:32;;;;;;;45.97;21.50;;;0.30;94.60;;;;;;5092660;28;20420;-70
2022/01/26 08:14:58;;;;;;;55.13;20.30;;;0.30;94.60;;;;;;5092362;28;20187;-70
2022/01/26 08:17:23;;;;;;;57.03;20.17;;;0.40;94.80;;;;;;5093122;28;20203;-71
2022/01/26 08:19:55;;;;;;;69.33;22.47;;;0.50;94.90;;;;;;5092681;28;20925;-71
2022/01/26 08:22:22;;;;;;;64.38;21.58;;;0.40;94.80;;;;;;5091500;28;20239;-72
2022/01/26 08:24:49;;;;;;;54.70;22.08;;;0.40;94.80;;;;;;5092290;28;20741;-74
2022/01/26 08:27:17;;;;;;;59.88;21.80;;;0.40;94.70;;;;;;5092424;28;20275;-70
2022/01/26 08:29:47;;;;;;;60.13;22.40;;;0.30;94.80;;;;;;5093326;28;20183;-71
2022/01/26 08:32:13;;;;;;;49.97;20.63;;;0.30;94.80;;;;;;5096768;28;20175;-71
2022/01/26 08:34:39;;;;;;;66.47;23.52;;;0.30;94.90;;;;;;5090716;28;20187;-71
2022/01/26 08:37:05;;;;;;;69.80;23.87;;;0.30;95.00;;;;;;5091100;28;20199;-71
2022/01/26 08:39:35;;;;;;;51.75;19.35;;;0.40;95.00;;;;;;5090165;28;20282;-71
2022/01/26 08:42:02;;;;;;;64.15;21.75;;;0.30;94.90;;;;;;5091409;28;20203;-71
2022/01/26 08:44:28;;;;;;;64.78;23.05;;;0.20;94.90;;;;;;5090916;28;20222;-75
2022/01/26 08:46:54;;;;;;;57.37;21.17;;;0.10;95.10;;;;;;5091120;28;20650;-72
2022/01/26 08:49:21;;;;;;;61.58;21.35;;;0.10;95.40;;;;;;5091480;28;20546;-72
2022/01/26 08:51:49;;;;;;;57.13;21.52;;;0.20;95.50;;;;;;5091225;28;20183;-71
2022/01/26 08:54:16;;;;;;;63.88;21.88;;;0.20;95.50;;;;;;5091474;28;20189;-71
2022/01/26 08:56:43;;;;;;;63.75;21.80;;;0.30;95.60;;;;;;5091070;28;20257;-72
2022/01/26 08:59:09;;;;;;;59.30;20.90;;;0.30;95.50;;;;;;5090055;28;20275;-71
2022/01/26 09:01:34;;;;;;;60.70;23.40;;;0.30;95.50;;;;;;5091133;28;20286;-70
2022/01/26 09:04:00;;;;;;;69.40;21.23;;;0.40;95.60;;;;;;5090153;28;20664;-69
2022/01/26 09:06:26;;;;;;;50.57;20.30;;;0.50;95.40;;;;;;5090009;28;20175;-71
2022/01/26 09:08:53;;;;;;;62.03;23.13;;;0.40;95.30;;;;;;5089925;28;20210;-71
2022/01/26 09:11:22;;;;;;;61.05;22.10;;;0.40;95.40;;;;;;5093485;28;20175;-69
2022/01/26 09:13:55;;;;;;;60.00;21.20;;;0.40;95.40;;;;;;5091720;28;20183;-70
2022/01/26 09:16:23;;;;;;;66.25;23.13;;;0.40;95.50;;;;;;5092758;28;21057;-71
2022/01/26 09:18:56;;;;;;;58.00;21.73;;;0.30;95.60;;;;;;5103169;28;20199;-72
2022/01/26 09:21:24;;;;;;;63.80;23.98;;;0.30;95.80;;;;;;5108051;28;20285;-71
2022/01/26 09:23:50;;;;;;;55.15;20.13;;;0.30;95.90;;;;;;5111459;28;20183;-70
2022/01/26 09:26:17;;;;;;;66.30;23.48;;;0.40;96.00;;;;;;5113894;28;20191;-73
2022/01/26 09:28:43;;;;;;;81.40;23.95;;;0.40;95.90;;;;;;5113262;28;20204;-72
2022/01/26 09:31:08;;;;;;;65.40;22.67;;;0.40;95.90;;;;;;5114306;28;20176;-73
2022/01/26 09:33:34;;;;;;;70.70;24.77;;;0.30;95.70;;;;;;5106888;28;20194;-71
2022/01/26 09:36:00;;;;;;;54.57;21.53;;;0.30;95.80;;;;;;5092387;28;20183;-72
2022/01/26 09:38:26;;;;;;;61.03;22.07;;;0.40;95.80;;;;;;5092701;28;20256;-71
2022/01/26 09:40:52;;;;;;;69.57;21.60;;;0.40;95.80;;;;;;5092972;28;20290;-70
2022/01/26 09:43:18;;;;;;;48.53;19.30;;;0.50;95.70;;;;;;5092205;28;20249;-73
2022/01/26 09:45:45;;;;;;;56.63;20.58;;;0.50;95.50;;;;;;5093398;28;20894;-70
2022/01/26 09:48:13;;;;;;;55.80;19.95;;;0.50;95.30;;;;;;5092302;28;20267;-70
2022/01/26 09:50:44;;;;;;;52.78;20.33;;;0.40;95.10;;;;;;5092466;28;20622;-71
2022/01/26 09:53:11;;;;;;;57.60;21.48;;;0.40;95.00;;;;;;5091760;28;20182;-70
2022/01/26 09:55:42;;;;;;;58.65;21.40;;;0.40;95.00;;;;;;5091257;28;20183;-70
2022/01/26 09:58:08;;;;;;;52.75;19.92;;;0.50;95.10;;;;;;5091413;28;20210;-70
2022/01/26 10:00:35;;;;;;;61.92;21.58;;;0.50;94.90;;;;;;5091120;28;20433;-69
2022/01/26 10:03:03;;;;;;;63.20;23.13;;;0.50;94.80;;;;;;5089640;28;20681;-70
2022/01/26 10:05:42;;;;;;;59.35;22.67;;;0.50;94.60;;;;;;5090978;28;20689;-70
2022/01/26 10:08:22;;;;;;;60.28;23.52;;;0.50;94.80;;;;;;5090815;28;20289;-71
2022/01/26 10:19:06;;;;;;;53.35;18.60;;;0.70;94.40;;;;;;5090591;28;20267;-70
2022/01/26 10:21:32;;;;;;;63.72;21.70;;;0.70;94.40;;;;;;5090316;28;20914;-70
2022/01/26 10:24:07;;;;;;;46.80;19.80;;;0.80;94.30;;;;;;5089580;28;20254;-70
2022/01/26 10:26:33;;;;;;;57.20;19.52;;;0.80;94.10;;;;;;5089859;28;20182;-69
2022/01/26 10:29:02;;;;;;;70.20;21.57;;;0.80;93.70;;;;;;5089151;28;20175;-70
2022/01/26 10:31:30;;;;;;;51.80;20.42;;;0.90;93.60;;;;;;5089977;28;20187;-70
2022/01/26 10:34:06;;;;;;;52.50;20.48;;;0.90;93.50;;;;;;5083073;28;20653;-69
2022/01/26 10:36:37;;;;;;;52.75;19.13;;;0.90;93.30;;;;;;5098488;28;20558;-70
2022/01/26 10:39:27;;;;;;;47.88;19.75;;;0.70;93.10;;;;;;5093137;28;20205;-69
2022/01/26 10:41:57;;;;;;;51.15;18.83;;;0.70;93.30;;;;;;5081507;28;20326;-70
2022/01/26 10:44:45;;;;;;;43.25;17.60;;;0.60;93.30;;;;;;5090095;28;20207;-70
2022/01/26 10:47:11;;;;;;;51.78;19.58;;;0.80;93.50;;;;;;5084318;28;20209;-71
2022/01/26 10:52:55;;;;;;;43.28;18.00;;;1.10;93.50;;;;;;5090085;28;20930;-70
2022/01/26 10:55:09;;;;;;;49.47;18.60;;;1.20;92.80;;;;;;5082742;28;20684;-69
2022/01/26 10:57:36;;;;;;;49.08;17.27;;;1.20;92.10;;;;;;5090005;28;20712;-70
2022/01/26 11:00:05;;;;;;;43.33;17.58;;;1.10;91.70;;;;;;5091873;28;20171;-70
2022/01/26 11:02:33;;;;;;;50.72;18.90;;;1.00;91.70;;;;;;5093688;28;20716;-71
2022/01/26 11:05:00;;;;;;;49.55;19.02;;;1.10;92.00;;;;;;5094791;28;20175;-70
2022/01/26 11:07:37;;;;;;;50.25;19.40;;;1.10;92.00;;;;;;5094886;28;20203;-70
2022/01/26 11:10:05;;;;;;;48.40;18.75;;;1.00;92.10;;;;;;5094408;28;20201;-73
2022/01/26 11:12:32;;;;;;;52.08;19.23;;;1.00;92.00;;;;;;5094283;28;20252;-72
2022/01/26 11:15:07;;;;;;;52.35;20.75;;;1.10;92.20;;;;;;5093826;28;20252;-72
2022/01/26 11:17:43;;;;;;;41.38;17.33;;;1.10;92.10;;;;;;5094683;28;20210;-70
2022/01/26 11:20:14;;;;;;;52.05;19.50;;;1.10;92.10;;;;;;5094156;28;20539;-70
2022/01/26 11:22:54;;;;;;;49.13;19.10;;;1.10;92.20;;;;;;5093539;28;20210;-72
2022/01/26 11:25:22;;;;;;;49.60;18.95;;;1.10;92.40;;;;;;5088879;28;20557;-71
2022/01/26 11:27:48;;;;;;;54.78;20.13;;;1.10;92.40;;;;;;5092555;28;20205;-70
2022/01/26 11:30:21;;;;;;;61.72;21.05;;;1.10;92.60;;;;;;5092100;28;20552;-70
2022/01/26 11:32:58;;;;;;;51.97;18.55;;;1.10;92.70;;;;;;5092829;28;20179;-70
2022/01/26 11:35:28;;;;;;;57.25;20.15;;;1.10;93.10;;;;;;5091863;28;20634;-71
2022/01/26 11:38:40;;;;;;;53.72;20.55;;;1.10;93.20;;;;;;5093650;28;20207;-71
2022/01/26 11:47:17;;;;;;;71.57;25.05;;;1.40;93.30;;;;;;5093129;28;20228;-71
2022/01/26 11:49:46;;;;;;;71.28;23.45;;;1.50;93.20;;;;;;5091581;28;20582;-71
2022/01/26 11:52:25;;;;;;;68.90;23.15;;;1.40;93.20;;;;;;5093221;28;20251;-70
2022/01/26 11:54:54;;;;;;;68.97;23.45;;;1.30;93.50;;;;;;5093498;28;20276;-70
2022/01/26 11:57:36;;;;;;;57.90;21.35;;;1.30;93.80;;;;;;5093233;28;20199;-70
2022/01/26 12:00:07;;;;;;;62.15;21.42;;;1.20;94.20;;;;;;5086695;28;20184;-70
2022/01/26 12:05:17;;;;;;;70.05;22.83;;;0.70;95.60;;;;;;5093803;28;20305;-70
2022/01/26 12:07:47;;;;;;;64.05;23.02;;;0.60;96.20;;;;;;5093406;28;20669;-70
2022/01/26 12:10:29;;;;;;;66.57;24.13;;;0.50;96.80;;;;;;5093530;28;20179;-71
2022/01/26 12:13:16;;;;;;;69.93;23.50;;;0.50;97.00;;;;;;5084364;28;20254;-70
2022/01/26 12:15:49;;;;;;;81.22;22.70;;;0.40;97.30;;;;;;5091930;28;20664;-71
2022/01/26 12:37:14;;;;;;;69.65;24.65;;;0.40;98.60;;;;;;5092930;28;20877;-70
2022/01/26 12:45:19;;;;;;;62.25;19.70;;;0.50;97.60;;;;;;5093861;28;20193;-70
2022/01/26 12:47:45;;;;;;;55.65;18.90;;;0.50;97.20;;;;;;5093068;28;20205;-70
2022/01/26 12:50:12;;;;;;;62.73;19.80;;;0.50;97.10;;;;;;5091278;28;20179;-70
2022/01/26 12:52:38;;;;;;;74.18;21.52;;;0.50;97.00;;;;;;5091769;28;20529;-71
2022/01/26 12:55:04;;;;;;;62.92;21.98;;;0.60;96.90;;;;;;5092883;28;20524;-71
2022/01/26 12:57:30;;;;;;;52.20;18.83;;;0.60;96.70;;;;;;5090990;28;20209;-70
2022/01/26 13:00:00;;;;;;;57.53;19.30;;;0.70;96.50;;;;;;5092677;28;20186;-70
2022/01/26 13:02:26;;;;;;;52.65;19.70;;;0.70;96.40;;;;;;5092412;28;20219;-70
2022/01/26 13:05:02;;;;;;;56.67;18.90;;;0.90;96.40;;;;;;5093047;28;20646;-69
2022/01/26 13:07:28;;;;;;;58.78;20.60;;;0.90;96.00;;;;;;5089489;28;20255;-69
2022/01/26 13:09:54;;;;;;;57.40;20.03;;;0.90;95.80;;;;;;5091270;28;20601;-70
2022/01/26 13:12:31;;;;;;;55.50;20.33;;;0.70;95.50;;;;;;5092415;28;20449;-70
2022/01/26 13:15:09;;;;;;;54.42;19.10;;;0.70;95.70;;;;;;5095378;28;20594;-69
2022/01/26 13:17:41;;;;;;;44.75;16.63;;;0.80;95.90;;;;;;5102603;28;20226;-70
2022/01/26 13:31:15;;;;;;;49.65;17.92;;;0.80;95.50;;;;;;5092789;28;20642;-70
2022/01/26 13:45:14;;;;;;;57.03;19.33;;;1.00;94.80;;;;;;5091563;28;20251;-70
2022/01/26 13:52:54;;;;;;;62.22;22.35;;;0.50;96.60;;;;;;5090257;28;20844;-70
2022/01/26 14:00:37;;;;;;;68.23;22.60;;;0.50;97.10;;;;;;5090266;28;20171;-70
2022/01/26 14:03:05;;;;;;;60.55;21.13;;;0.50;97.20;;;;;;5089808;28;20186;-71
2022/01/26 14:05:31;;;;;;;52.25;19.75;;;0.50;97.30;;;;;;5089931;28;20583;-71
2022/01/26 14:07:57;;;;;;;60.60;19.10;;;0.40;97.30;;;;;;5089325;28;20282;-70
2022/01/26 15:29:59;;;;;;;44.28;18.48;;;-0.10;98.10;;;;;;5087547;28;20234;-70
2022/01/26 15:44:25;;;;;;;46.55;17.40;;;0.10;97.70;;;;;;5061396;28;20184;-71
2022/01/26 16:06:18;;;;;;;32.88;14.35;;;0.20;96.90;;;;;;5006584;28;20634;-71
2022/01/26 17:46:42;;;;;;;52.05;17.83;;;0.10;96.10;;;;;;5099593;28;20194;-71
2022/01/26 18:32:56;;;;;;;56.63;18.58;;;0.10;95.10;;;;;;5087155;28;20229;-71
2022/01/26 18:51:29;;;;;;;47.58;17.85;;;0.30;95.90;;;;;;5085176;28;20574;-71
2022/01/26 18:53:54;;;;;;;55.63;19.60;;;0.30;95.80;;;;;;5087529;28;20183;-71
2022/01/26 18:56:20;;;;;;;49.23;17.60;;;0.40;95.70;;;;;;5088153;28;20179;-71
2022/01/26 18:58:46;;;;;;;52.47;17.05;;;0.40;95.60;;;;;;5088811;28;20795;-69
2022/01/26 19:01:12;;;;;;;49.73;18.53;;;0.50;95.60;;;;;;5088802;28;20206;-71
2022/01/26 19:03:38;;;;;;;62.90;19.83;;;0.50;95.60;;;;;;5088025;28;20183;-71
2022/01/26 19:06:04;;;;;;;50.30;18.60;;;0.50;95.60;;;;;;5088960;28;20202;-72
2022/01/26 19:08:31;;;;;;;58.30;19.80;;;0.60;95.60;;;;;;5089136;28;20212;-71
2022/01/26 19:10:57;;;;;;;47.17;18.42;;;0.60;95.60;;;;;;5088014;28;20926;-71
2022/01/26 19:13:28;;;;;;;57.92;18.75;;;0.60;95.40;;;;;;5086837;28;20214;-72
2022/01/26 19:15:58;;;;;;;53.67;18.70;;;0.40;95.30;;;;;;5088592;28;20297;-70
2022/01/26 19:18:38;;;;;;;61.50;19.90;;;0.40;95.50;;;;;;5086740;28;20195;-69
2022/01/26 19:21:23;;;;;;;63.65;19.60;;;0.40;95.60;;;;;;5086752;28;20198;-71
2022/01/26 19:26:53;;;;;;;61.33;19.27;;;0.40;95.90;;;;;;5066722;28;20191;-71
2022/01/26 19:29:34;;;;;;;53.80;18.75;;;0.50;96.00;;;;;;5092265;28;20286;-69
2022/01/26 19:53:12;;;;;;;52.42;18.83;;;0.30;96.30;;;;;;5086084;28;20979;-71
2022/01/26 19:55:38;;;;;;;51.77;18.93;;;0.30;96.20;;;;;;5089588;28;20191;-72
2022/01/26 19:58:07;;;;;;;47.83;18.70;;;0.40;96.20;;;;;;5091174;28;20436;-71
2022/01/26 20:00:34;;;;;;;52.15;18.42;;;0.40;95.90;;;;;;5091445;28;20175;-72
2022/01/26 20:03:00;;;;;;;54.38;17.20;;;0.40;95.80;;;;;;5091328;28;20689;-71
2022/01/26 20:05:27;;;;;;;52.88;18.23;;;0.40;95.70;;;;;;5090955;28;20229;-71
2022/01/26 20:08:00;;;;;;;49.92;18.13;;;0.50;95.70;;;;;;5091716;28;20196;-69
2022/01/26 20:10:30;;;;;;;46.88;17.13;;;0.50;95.60;;;;;;5091869;28;20278;-72
2022/01/26 20:13:04;;;;;;;52.70;17.95;;;0.40;95.40;;;;;;5090822;28;20653;-71
2022/01/26 20:15:31;;;;;;;54.38;18.23;;;0.40;95.20;;;;;;5087913;28;20231;-69
2022/01/26 20:17:58;;;;;;;54.15;17.38;;;0.30;95.30;;;;;;5089251;28;20202;-70
2022/01/26 20:20:25;;;;;;;53.05;16.33;;;0.40;95.40;;;;;;5091249;28;20179;-72
2022/01/26 20:22:52;;;;;;;52.85;17.85;;;0.40;95.40;;;;;;5089357;28;20214;-72
2022/01/26 20:25:19;;;;;;;56.92;17.48;;;0.40;95.20;;;;;;5085977;28;20184;-72
2022/01/26 20:27:46;;;;;;;46.25;17.42;;;0.30;95.10;;;;;;5089661;28;20211;-72
2022/01/26 20:30:21;;;;;;;44.30;17.08;;;0.40;95.30;;;;;;5089678;28;20176;-72
2022/01/26 20:32:49;;;;;;;53.65;17.65;;;0.50;95.30;;;;;;5088180;28;20187;-69
2022/01/26 20:35:17;;;;;;;44.97;17.45;;;0.50;95.10;;;;;;5091010;28;20298;-72
2022/01/26 20:37:43;;;;;;;49.38;18.45;;;0.50;94.80;;;;;;5090637;28;20213;-72
2022/01/26 20:40:10;;;;;;;48.88;17.40;;;0.40;94.90;;;;;;5090855;28;20263;-72
2022/01/26 20:42:36;;;;;;;61.33;20.95;;;0.30;95.00;;;;;;5088964;28;20234;-72
2022/01/26 20:45:05;;;;;;;52.38;17.38;;;0.30;95.10;;;;;;5090848;28;20620;-70
2022/01/26 20:47:30;;;;;;;48.22;18.88;;;0.20;95.30;;;;;;5090088;28;20229;-71